Terminal Aerodrome Forecast
Issued by NWS Charleston, WV

Current Version | Previous Version | Graphics & Text | Print | Product List | Glossary On
Versions: 1 2 3 4 5 6 7 8 9 10 11 12 13 14 15 16 17 18 19 20 21 22
830
FTUS41 KRLX 150543
TAFPKB
TAF
KPKB 150543Z 1506/1606 00000KT P6SM BKN090
     FM151600 24006KT P6SM SCT090
     FM152000 25008G14KT P6SM BKN040
     FM160400 25008KT P6SM BKN040=

USA.gov is the U.S. government's official web portal to all federal, state and local government web resources and services.